Time;durP1;ratioP1;P1;durP2;ratioP2;P2;SDS_P1;SDS_P2;PMS_P1;PMS_P2;Temp;Humidity;BMP_temperature;BMP_pressure;BME280_temperature;BME280_humidity;BME280_pressure;Samples;Min_cycle;Max_cycle;Signal;HPM_P1;HPM_P2
2022/03/06 15:51:41;;;;;;;48.10;32.33;;;16.40;32.10;;;;;;5079418;27;20421;-72
2022/03/06 15:54:07;;;;;;;52.50;35.40;;;16.00;33.90;;;;;;5064757;28;20072;-69
2022/03/06 15:56:33;;;;;;;41.00;27.85;;;15.90;34.30;;;;;;5064941;28;20109;-73
2022/03/06 15:58:58;;;;;;;41.72;26.08;;;17.20;32.80;;;;;;5065622;28;20092;-70
2022/03/06 16:01:24;;;;;;;82.40;47.47;;;17.50;31.90;;;;;;5064286;28;20024;-69
2022/03/06 16:03:50;;;;;;;41.75;30.33;;;17.70;30.70;;;;;;5065288;28;20399;-70
2022/03/06 16:06:16;;;;;;;36.10;24.27;;;17.40;31.50;;;;;;5065104;28;20025;-72
2022/03/06 16:08:42;;;;;;;35.10;24.58;;;17.20;31.80;;;;;;5064923;28;20814;-71
2022/03/06 16:11:10;;;;;;;33.92;24.52;;;16.90;32.80;;;;;;5061813;28;20118;-72
2022/03/06 16:13:36;;;;;;;34.70;23.55;;;16.60;33.20;;;;;;5064547;28;20021;-73
2022/03/06 16:16:02;;;;;;;33.33;23.25;;;16.30;33.80;;;;;;5062110;28;20028;-74
2022/03/06 16:18:28;;;;;;;30.65;21.65;;;16.10;33.60;;;;;;5064943;28;20029;-71
2022/03/06 16:20:54;;;;;;;34.72;22.98;;;15.80;35.00;;;;;;5064196;28;20078;-71
2022/03/06 16:23:20;;;;;;;31.35;21.15;;;15.60;34.20;;;;;;5057423;28;20484;-70
2022/03/06 16:25:46;;;;;;;31.38;20.25;;;15.30;34.80;;;;;;5046127;28;20032;-71
2022/03/06 16:28:12;;;;;;;30.42;20.92;;;15.10;35.00;;;;;;5062533;28;20611;-72
2022/03/06 16:30:38;;;;;;;29.08;19.23;;;14.90;35.10;;;;;;5060559;28;20116;-70
2022/03/06 16:33:05;;;;;;;28.23;19.27;;;14.80;35.10;;;;;;5064122;28;20158;-71
2022/03/06 16:35:31;;;;;;;30.35;20.38;;;14.70;35.40;;;;;;5065363;28;20075;-73
2022/03/06 16:37:57;;;;;;;31.13;20.50;;;14.30;35.40;;;;;;5062500;28;20072;-70
2022/03/06 16:40:22;;;;;;;35.65;22.60;;;14.20;36.40;;;;;;5058903;28;20072;-71
2022/03/06 16:42:50;;;;;;;38.35;25.25;;;14.10;37.30;;;;;;5058132;28;20067;-72
2022/03/06 16:45:16;;;;;;;33.40;20.80;;;14.00;37.60;;;;;;5064239;28;20062;-70
2022/03/06 16:47:41;;;;;;;32.83;20.23;;;13.90;37.70;;;;;;5063824;28;20514;-70
2022/03/06 16:50:07;;;;;;;30.13;19.35;;;13.90;38.10;;;;;;5053404;28;20041;-70
2022/03/06 16:52:33;;;;;;;29.52;19.08;;;13.70;37.80;;;;;;5063899;28;20606;-73
2022/03/06 16:55:01;;;;;;;29.48;19.23;;;13.60;38.10;;;;;;5063681;28;20031;-71
2022/03/06 16:57:27;;;;;;;40.78;23.60;;;13.60;39.00;;;;;;5064021;28;20380;-71
2022/03/06 16:59:53;;;;;;;43.05;25.77;;;13.40;39.40;;;;;;5042256;28;20036;-72
2022/03/06 17:02:20;;;;;;;39.75;24.00;;;13.20;40.00;;;;;;5024463;28;20493;-73
2022/03/06 17:04:45;;;;;;;35.42;21.92;;;13.00;40.70;;;;;;5035466;28;20116;-71
2022/03/06 17:07:11;;;;;;;34.65;22.05;;;12.80;41.10;;;;;;5028048;28;20163;-71
2022/03/06 17:09:37;;;;;;;35.55;22.95;;;12.70;41.80;;;;;;5049184;28;20037;-73
2022/03/06 17:12:04;;;;;;;32.72;22.00;;;12.50;42.30;;;;;;5043876;28;20029;-73
2022/03/06 17:14:30;;;;;;;33.75;22.02;;;12.30;42.30;;;;;;5050670;28;20511;-71
2022/03/06 17:16:57;;;;;;;30.73;20.85;;;12.20;43.00;;;;;;5047642;28;20025;-71
2022/03/06 17:19:24;;;;;;;35.08;22.13;;;12.10;43.30;;;;;;5043554;28;20033;-74
2022/03/06 17:21:50;;;;;;;48.95;27.45;;;12.00;43.70;;;;;;5042768;28;20025;-73
2022/03/06 17:24:19;;;;;;;37.58;23.17;;;11.80;44.30;;;;;;5044335;28;20034;-74
2022/03/06 17:26:46;;;;;;;35.22;22.23;;;11.50;44.30;;;;;;5048047;28;20029;-74
2022/03/06 17:29:12;;;;;;;34.88;22.25;;;11.50;45.10;;;;;;5046434;28;20063;-74
2022/03/06 17:31:39;;;;;;;40.47;24.55;;;11.50;45.50;;;;;;5048164;28;20048;-76
2022/03/06 17:34:04;;;;;;;42.22;28.08;;;11.30;46.20;;;;;;5035489;28;20036;-73
2022/03/06 17:36:30;;;;;;;37.53;22.83;;;11.20;46.40;;;;;;5052025;28;20714;-75
2022/03/06 17:38:56;;;;;;;35.28;23.20;;;11.10;46.10;;;;;;5041785;28;20411;-74
2022/03/06 17:41:22;;;;;;;40.78;28.52;;;11.00;46.30;;;;;;5044961;28;20090;-75
2022/03/06 17:43:49;;;;;;;43.70;27.65;;;10.80;46.70;;;;;;5047198;28;20396;-74
2022/03/06 17:46:20;;;;;;;38.20;24.80;;;10.70;46.60;;;;;;5042559;28;20032;-75
2022/03/06 17:48:47;;;;;;;40.58;25.88;;;10.60;46.90;;;;;;5044888;28;20056;-72
2022/03/06 17:51:14;;;;;;;39.45;25.38;;;10.50;47.10;;;;;;5047750;28;21158;-74
2022/03/06 17:53:41;;;;;;;43.03;27.77;;;10.40;47.60;;;;;;5049560;28;20471;-73
2022/03/06 17:56:07;;;;;;;42.53;27.85;;;10.30;48.10;;;;;;5048630;28;20036;-73
2022/03/06 17:58:33;;;;;;;40.22;25.05;;;10.20;48.20;;;;;;5046580;28;20025;-72
2022/03/06 18:00:59;;;;;;;42.83;26.23;;;10.20;48.50;;;;;;5042990;28;20036;-77
2022/03/06 18:03:25;;;;;;;39.78;25.15;;;10.10;48.80;;;;;;5044668;28;20484;-75
2022/03/06 18:05:51;;;;;;;39.90;26.52;;;10.10;49.50;;;;;;5041469;28;20044;-75
2022/03/06 18:08:17;;;;;;;43.55;28.08;;;10.00;49.80;;;;;;5051991;28;20017;-74
2022/03/06 18:10:43;;;;;;;42.40;28.15;;;9.80;50.10;;;;;;5047375;28;20032;-75
2022/03/06 18:13:09;;;;;;;49.05;33.95;;;9.80;50.40;;;;;;5046223;28;20021;-76
2022/03/06 18:15:35;;;;;;;46.83;25.77;;;9.70;50.50;;;;;;5041299;28;20870;-75
2022/03/06 18:18:04;;;;;;;43.08;25.73;;;9.70;50.90;;;;;;5038126;28;20112;-74
2022/03/06 18:20:31;;;;;;;48.03;32.65;;;9.50;51.20;;;;;;5035523;28;20043;-71
2022/03/06 18:22:58;;;;;;;48.83;31.58;;;9.50;51.50;;;;;;5037970;28;20112;-75
2022/03/06 18:25:26;;;;;;;44.40;28.65;;;9.40;51.70;;;;;;5045587;28;20025;-73
2022/03/06 18:27:51;;;;;;;45.47;29.67;;;9.30;52.20;;;;;;5033850;28;20033;-76
2022/03/06 18:30:18;;;;;;;46.67;29.63;;;9.30;52.10;;;;;;5045953;28;20077;-74
2022/03/06 18:32:43;;;;;;;43.72;26.60;;;9.20;52.30;;;;;;5046395;28;20033;-74
2022/03/06 18:35:10;;;;;;;42.67;26.88;;;9.20;52.50;;;;;;5046052;28;20028;-75
2022/03/06 18:37:36;;;;;;;43.10;27.85;;;9.10;52.70;;;;;;5044715;28;20025;-76
2022/03/06 18:40:03;;;;;;;45.33;29.63;;;9.10;52.80;;;;;;5044259;28;20025;-76
2022/03/06 18:42:37;;;;;;;45.75;28.08;;;9.00;53.20;;;;;;5044495;28;20045;-72
2022/03/06 18:45:03;;;;;;;46.70;33.70;;;9.00;53.40;;;;;;5033460;28;20643;-73
2022/03/06 18:47:29;;;;;;;49.03;31.73;;;8.90;53.50;;;;;;5046425;28;20043;-73
2022/03/06 18:49:55;;;;;;;42.05;25.48;;;8.80;53.80;;;;;;5024598;28;20048;-74
2022/03/06 18:52:20;;;;;;;52.33;32.67;;;8.80;54.10;;;;;;5027554;28;20083;-73
2022/03/06 18:54:46;;;;;;;43.05;27.52;;;8.80;54.40;;;;;;5046049;28;20044;-75
2022/03/06 18:57:14;;;;;;;47.17;31.88;;;8.70;54.40;;;;;;5033769;28;20040;-73
2022/03/06 18:59:41;;;;;;;45.63;27.85;;;8.70;54.70;;;;;;5031887;28;20376;-71
2022/03/06 19:02:07;;;;;;;46.20;30.05;;;8.70;54.70;;;;;;5048244;28;20040;-71
2022/03/06 19:04:32;;;;;;;46.00;29.27;;;8.60;55.00;;;;;;5029007;28;20029;-71
2022/03/06 19:06:58;;;;;;;50.45;31.92;;;8.50;55.30;;;;;;5031781;28;20124;-73
2022/03/06 19:09:25;;;;;;;44.08;28.60;;;8.50;55.50;;;;;;5045337;28;20036;-71
2022/03/06 19:11:52;;;;;;;58.97;35.85;;;8.40;55.90;;;;;;5032192;28;20123;-72
2022/03/06 19:14:18;;;;;;;76.43;42.13;;;8.40;56.30;;;;;;5047102;28;20021;-74
2022/03/06 19:16:44;;;;;;;49.78;28.42;;;8.30;56.50;;;;;;5034141;28;20070;-77
2022/03/06 19:19:10;;;;;;;45.25;27.50;;;8.20;56.60;;;;;;5045571;28;20445;-71
2022/03/06 19:21:38;;;;;;;41.60;26.00;;;8.20;56.70;;;;;;5046433;28;20148;-74
2022/03/06 19:24:05;;;;;;;42.13;25.73;;;8.20;56.90;;;;;;5030022;28;20108;-74
2022/03/06 19:26:31;;;;;;;41.80;24.60;;;8.10;57.20;;;;;;5047380;28;20021;-74
2022/03/06 19:28:57;;;;;;;40.00;24.25;;;8.00;57.40;;;;;;5029728;28;20029;-73
2022/03/06 19:31:23;;;;;;;42.15;25.02;;;8.00;57.60;;;;;;5031876;28;20565;-75
2022/03/06 19:33:49;;;;;;;45.25;25.00;;;7.90;57.70;;;;;;5029670;28;20120;-74
2022/03/06 19:36:17;;;;;;;41.30;25.30;;;7.90;57.80;;;;;;5028951;28;20472;-74
2022/03/06 19:38:43;;;;;;;42.92;25.55;;;7.80;57.90;;;;;;5042123;28;20112;-78
2022/03/06 19:41:09;;;;;;;43.92;25.15;;;7.80;58.20;;;;;;5029111;28;20048;-74
2022/03/06 19:43:35;;;;;;;45.72;28.70;;;7.70;58.20;;;;;;5029871;28;20026;-76
2022/03/06 19:46:02;;;;;;;41.95;25.58;;;7.70;58.40;;;;;;5047378;28;20480;-74
2022/03/06 19:48:28;;;;;;;40.55;24.60;;;7.60;58.60;;;;;;5027990;28;20029;-74
2022/03/06 19:50:54;;;;;;;48.92;29.73;;;7.60;58.90;;;;;;5035699;28;20052;-74
2022/03/06 19:53:20;;;;;;;46.03;31.05;;;7.50;59.20;;;;;;5048002;28;20565;-74
2022/03/06 19:55:46;;;;;;;45.38;26.95;;;7.50;60.30;;;;;;5044689;28;20519;-73
2022/03/06 19:58:12;;;;;;;43.70;27.63;;;7.40;59.70;;;;;;5047190;28;20021;-73
2022/03/06 20:00:37;;;;;;;56.05;38.22;;;7.40;60.10;;;;;;5047296;28;20032;-74
2022/03/06 20:03:04;;;;;;;57.38;39.13;;;7.30;60.30;;;;;;5019266;28;20395;-75
2022/03/06 20:05:29;;;;;;;68.15;51.00;;;7.30;60.80;;;;;;5030402;28;20492;-75
2022/03/06 20:07:56;;;;;;;59.10;39.83;;;7.20;60.70;;;;;;5042886;28;20037;-74
2022/03/06 20:10:23;;;;;;;57.55;38.40;;;7.20;61.00;;;;;;5048551;28;20052;-74
2022/03/06 20:12:50;;;;;;;52.25;31.80;;;7.10;60.90;;;;;;5047589;28;20025;-74
2022/03/06 20:15:16;;;;;;;52.15;34.35;;;7.10;61.60;;;;;;5044880;28;20435;-75
2022/03/06 20:17:43;;;;;;;88.18;73.38;;;7.00;61.60;;;;;;5042295;28;20086;-75
2022/03/06 20:20:11;;;;;;;103.03;78.97;;;7.00;62.00;;;;;;5043697;28;20492;-75
2022/03/06 20:22:38;;;;;;;96.90;67.35;;;6.90;62.40;;;;;;5044105;28;20021;-76
2022/03/06 20:25:07;;;;;;;136.25;92.88;;;6.90;62.90;;;;;;5042625;28;20150;-75
2022/03/06 20:27:33;;;;;;;109.65;72.65;;;6.80;63.40;;;;;;5025195;28;20100;-76
2022/03/06 20:29:58;;;;;;;105.47;71.05;;;6.70;63.60;;;;;;5038538;28;20569;-75
2022/03/06 20:32:24;;;;;;;82.65;55.22;;;6.70;63.50;;;;;;5035192;28;20087;-76
2022/03/06 20:34:51;;;;;;;138.05;84.40;;;6.70;63.70;;;;;;5043420;28;20025;-76
2022/03/06 20:37:17;;;;;;;95.13;57.80;;;6.70;64.70;;;;;;5033985;28;20029;-74
2022/03/06 20:39:43;;;;;;;124.82;70.45;;;6.60;65.30;;;;;;5046798;28;20029;-76
2022/03/06 20:42:09;;;;;;;149.40;85.90;;;6.60;65.80;;;;;;5045859;28;20507;-77
2022/03/06 20:44:35;;;;;;;81.57;48.05;;;6.50;66.30;;;;;;5049136;28;20223;-76
2022/03/06 20:47:00;;;;;;;136.60;80.80;;;6.50;67.20;;;;;;5050453;28;20029;-75
2022/03/06 20:49:26;;;;;;;74.85;43.80;;;6.50;68.60;;;;;;5043097;28;20033;-72
2022/03/06 20:51:52;;;;;;;94.75;50.90;;;6.50;70.20;;;;;;5049166;28;20082;-75
2022/03/06 20:54:20;;;;;;;135.27;75.15;;;6.50;70.90;;;;;;5050511;28;20024;-74
2022/03/06 20:56:46;;;;;;;56.35;33.25;;;6.50;71.10;;;;;;5047806;28;20120;-76
2022/03/06 20:59:13;;;;;;;67.88;40.63;;;6.40;71.40;;;;;;5046789;28;20048;-75
2022/03/06 21:01:39;;;;;;;52.67;32.10;;;6.40;72.00;;;;;;5049904;28;20522;-75
2022/03/06 21:04:05;;;;;;;54.63;33.58;;;6.40;72.30;;;;;;5048429;28;20026;-75
2022/03/06 21:06:31;;;;;;;50.08;28.40;;;6.40;72.40;;;;;;5049808;28;20505;-75
2022/03/06 21:08:57;;;;;;;56.60;33.47;;;6.40;72.90;;;;;;5045703;28;20104;-75
2022/03/06 21:11:23;;;;;;;52.80;33.05;;;6.30;73.00;;;;;;5030542;28;20037;-77
2022/03/06 21:13:49;;;;;;;45.65;27.20;;;6.30;74.40;;;;;;5049509;28;20049;-75
2022/03/06 21:16:16;;;;;;;42.25;25.40;;;6.30;75.50;;;;;;5049712;28;20078;-77
2022/03/06 21:18:42;;;;;;;43.67;25.23;;;6.20;76.60;;;;;;5047916;28;20044;-75
2022/03/06 21:21:09;;;;;;;45.90;24.92;;;6.20;76.50;;;;;;5049655;28;20086;-74
2022/03/06 21:23:35;;;;;;;44.70;25.15;;;6.20;77.70;;;;;;5042101;28;20033;-76
2022/03/06 21:26:01;;;;;;;44.80;25.13;;;6.20;78.70;;;;;;5046476;28;20032;-76
2022/03/06 21:28:28;;;;;;;44.03;25.17;;;6.10;78.60;;;;;;5047777;28;20028;-74
2022/03/06 21:30:55;;;;;;;43.65;24.00;;;6.10;78.80;;;;;;5044800;28;20045;-75
2022/03/06 21:33:21;;;;;;;41.22;23.83;;;6.10;79.00;;;;;;5049642;28;20028;-76
2022/03/06 21:35:47;;;;;;;42.25;23.90;;;6.10;80.10;;;;;;5023373;28;20033;-76
2022/03/06 21:38:13;;;;;;;43.28;24.25;;;6.00;80.00;;;;;;5039440;28;20021;-74
2022/03/06 21:40:38;;;;;;;42.78;24.45;;;6.00;80.70;;;;;;5046145;28;20039;-78
2022/03/06 21:43:04;;;;;;;43.38;24.67;;;6.00;80.70;;;;;;5044393;28;20075;-76
2022/03/06 21:45:31;;;;;;;39.33;23.27;;;5.90;82.00;;;;;;5048946;28;20106;-74
2022/03/06 21:47:57;;;;;;;41.97;24.38;;;5.90;82.10;;;;;;5045248;28;20036;-73
2022/03/06 21:50:23;;;;;;;43.53;24.70;;;5.80;81.70;;;;;;5048669;28;20049;-77
2022/03/06 21:52:48;;;;;;;41.15;23.63;;;5.80;82.20;;;;;;5044621;28;20022;-74
2022/03/06 21:55:14;;;;;;;44.65;24.42;;;5.80;81.80;;;;;;5025554;28;20041;-76
2022/03/06 21:57:40;;;;;;;43.42;24.55;;;5.80;82.60;;;;;;5047295;28;20026;-76
2022/03/06 22:00:10;;;;;;;40.53;24.23;;;5.70;82.60;;;;;;5050487;28;20603;-76
2022/03/06 22:02:36;;;;;;;41.88;25.35;;;5.70;84.80;;;;;;5050280;28;20526;-75
2022/03/06 22:05:03;;;;;;;40.67;24.20;;;5.60;85.70;;;;;;5026253;28;20510;-76
2022/03/06 22:07:29;;;;;;;42.28;24.70;;;5.60;85.90;;;;;;5047372;28;20025;-73
2022/03/06 22:09:54;;;;;;;41.22;23.92;;;5.60;85.90;;;;;;5048638;28;20069;-73
2022/03/06 22:12:20;;;;;;;45.00;25.83;;;5.50;86.30;;;;;;5049185;28;20108;-74
2022/03/06 22:14:46;;;;;;;43.13;25.13;;;5.50;87.60;;;;;;5048877;28;20506;-75
2022/03/06 22:17:12;;;;;;;43.92;24.42;;;5.40;88.30;;;;;;5048341;28;20036;-73
2022/03/06 22:19:38;;;;;;;43.88;25.05;;;5.40;89.00;;;;;;5032771;28;20025;-75
2022/03/06 22:22:04;;;;;;;44.05;24.83;;;5.40;89.10;;;;;;5042779;28;20102;-74
2022/03/06 22:24:30;;;;;;;43.53;24.67;;;5.40;89.80;;;;;;5045654;28;20059;-73
2022/03/06 22:26:56;;;;;;;43.33;24.90;;;5.40;90.40;;;;;;5047262;28;20033;-73
2022/03/06 22:29:22;;;;;;;41.83;24.75;;;5.40;90.30;;;;;;5045405;28;20104;-75
2022/03/06 22:31:48;;;;;;;47.88;25.25;;;5.40;90.30;;;;;;5023687;28;20576;-76
2022/03/06 22:34:14;;;;;;;47.70;25.15;;;5.40;90.30;;;;;;5051085;28;20021;-75
2022/03/06 22:36:40;;;;;;;45.95;26.13;;;5.30;90.20;;;;;;5056941;28;20041;-75
2022/03/06 22:39:06;;;;;;;43.53;24.42;;;5.30;90.70;;;;;;5044215;28;20025;-76
2022/03/06 22:41:32;;;;;;;44.70;24.92;;;5.30;90.70;;;;;;5044633;28;20028;-76
2022/03/06 22:43:58;;;;;;;47.92;25.88;;;5.30;90.70;;;;;;5045031;28;20025;-75
2022/03/06 22:46:24;;;;;;;50.60;25.80;;;5.20;90.70;;;;;;5040078;28;20040;-76
2022/03/06 22:48:49;;;;;;;42.95;24.05;;;5.20;91.10;;;;;;5046004;28;20031;-75
2022/03/06 22:51:15;;;;;;;47.08;25.92;;;5.10;91.10;;;;;;5029850;28;20045;-75
2022/03/06 22:53:41;;;;;;;47.85;26.48;;;5.10;91.30;;;;;;5040844;28;20150;-75
2022/03/06 22:56:07;;;;;;;43.38;25.60;;;5.10;91.40;;;;;;5044999;28;20115;-76
2022/03/06 22:58:33;;;;;;;45.30;25.25;;;5.00;91.50;;;;;;5045111;28;20507;-74
2022/03/06 23:01:19;;;;;;;44.03;25.25;;;5.00;91.60;;;;;;5045022;28;20035;-77
2022/03/06 23:03:46;;;;;;;43.13;24.52;;;5.00;91.40;;;;;;5044099;28;20151;-75
2022/03/06 23:09:00;;;;;;;43.08;24.60;;;5.00;91.60;;;;;;5044801;28;20044;-75
2022/03/06 23:11:28;;;;;;;46.80;25.55;;;4.90;91.70;;;;;;5045341;28;20033;-76
2022/03/06 23:13:54;;;;;;;44.10;23.95;;;4.90;91.70;;;;;;5043640;28;20054;-73
2022/03/06 23:16:20;;;;;;;42.00;24.83;;;4.90;91.70;;;;;;5047601;28;20139;-75
2022/03/06 23:18:45;;;;;;;45.88;25.45;;;4.90;91.60;;;;;;5044260;28;20070;-72
2022/03/06 23:21:12;;;;;;;43.80;24.65;;;4.80;91.70;;;;;;5039858;28;20408;-73
2022/03/06 23:23:38;;;;;;;41.30;23.65;;;4.80;91.50;;;;;;5048843;28;20072;-73
2022/03/06 23:26:05;;;;;;;39.80;24.10;;;4.80;91.50;;;;;;5045841;28;20035;-73
2022/03/06 23:28:31;;;;;;;41.55;23.85;;;4.70;91.30;;;;;;5047898;28;20041;-73
2022/03/06 23:30:57;;;;;;;41.75;23.20;;;4.70;91.20;;;;;;5046800;28;20040;-75
2022/03/06 23:33:23;;;;;;;42.17;23.77;;;4.70;91.30;;;;;;5043879;28;20021;-72
2022/03/06 23:35:49;;;;;;;39.10;23.92;;;4.70;91.20;;;;;;5038191;28;20484;-74
2022/03/06 23:38:15;;;;;;;41.05;24.10;;;4.60;91.10;;;;;;5048707;28;20060;-73
2022/03/06 23:40:40;;;;;;;43.10;22.58;;;4.60;91.10;;;;;;5044809;28;20408;-72
2022/03/06 23:43:06;;;;;;;39.75;23.77;;;4.50;91.40;;;;;;5043880;28;20405;-73
2022/03/06 23:45:32;;;;;;;41.60;24.98;;;4.50;91.20;;;;;;5042551;28;20058;-75
2022/03/06 23:47:58;;;;;;;43.03;24.20;;;4.40;91.60;;;;;;5049433;28;20082;-74
2022/03/06 23:50:24;;;;;;;44.58;25.23;;;4.40;92.10;;;;;;5048122;28;20057;-74
2022/03/06 23:52:51;;;;;;;43.55;25.52;;;4.40;92.20;;;;;;5041746;28;20034;-74
2022/03/06 23:55:17;;;;;;;44.85;25.73;;;4.40;92.60;;;;;;5033335;28;20030;-74
2022/03/06 23:57:43;;;;;;;44.85;26.20;;;4.40;93.00;;;;;;5045119;28;20025;-74
